createdAt,value
2023-02-28T00:04:23.063Z,6.30
2023-02-28T00:09:25.081Z,6.75
2023-02-28T00:14:27.081Z,6.70
2023-02-28T00:19:29.173Z,6.13
2023-02-28T00:24:31.163Z,6.47
2023-02-28T00:29:33.193Z,6.00
2023-02-28T00:34:38.521Z,6.53
2023-02-28T00:39:41.723Z,6.32
2023-02-28T00:44:43.870Z,6.72
2023-02-28T00:49:47.364Z,6.75
2023-02-28T00:54:49.559Z,6.82
2023-02-28T00:59:51.952Z,7.22
2023-02-28T01:04:54.665Z,7.80
2023-02-28T01:09:57.113Z,6.70
2023-02-28T01:15:01.002Z,6.97
2023-02-28T01:20:03.863Z,7.10
2023-02-28T01:25:06.754Z,6.93
2023-02-28T01:30:10.194Z,6.88
2023-02-28T01:35:12.237Z,6.43
2023-02-28T01:40:14.653Z,5.95
2023-02-28T01:45:29.965Z,6.68
2023-02-28T01:50:36.658Z,6.90
2023-02-28T01:55:40.322Z,7.40
2023-02-28T02:00:43.734Z,6.90
2023-02-28T02:05:49.660Z,6.90
2023-02-28T02:10:55.475Z,6.35
2023-02-28T02:16:19.919Z,5.65
2023-02-28T02:21:43.451Z,5.75
2023-02-28T02:26:56.712Z,6.00
2023-02-28T02:32:23.168Z,6.50
2023-02-28T02:37:48.595Z,6.07
2023-02-28T02:43:09.392Z,6.25
2023-02-28T02:48:16.602Z,6.00
2023-02-28T02:53:22.741Z,5.63
2023-02-28T02:58:32.770Z,5.80
2023-02-28T03:03:35.395Z,6.40
2023-02-28T03:08:39.198Z,6.18
2023-02-28T03:13:50.681Z,5.88
2023-02-28T03:19:38.973Z,6.45
2023-02-28T03:24:59.012Z,5.80
2023-02-28T03:30:01.010Z,5.80
2023-02-28T03:35:26.814Z,5.90
2023-02-28T03:40:32.666Z,6.45
2023-02-28T03:45:37.699Z,6.05
2023-02-28T03:50:46.614Z,6.15
2023-02-28T03:55:56.622Z,5.75
2023-02-28T04:01:08.915Z,6.20
2023-02-28T04:06:17.729Z,5.82
2023-02-28T04:11:40.486Z,6.15
2023-02-28T04:16:43.225Z,6.10
2023-02-28T04:21:48.155Z,6.10
2023-02-28T04:26:52.525Z,6.00
2023-02-28T04:31:55.484Z,5.65
2023-02-28T04:37:12.014Z,5.85
2023-02-28T04:42:15.452Z,5.82
2023-02-28T04:47:17.619Z,5.50
2023-02-28T04:52:19.642Z,5.93
2023-02-28T04:57:21.712Z,5.70
2023-02-28T05:02:24.861Z,6.13
2023-02-28T05:07:27.048Z,6.00
2023-02-28T05:12:29.204Z,5.85
2023-02-28T05:17:31.706Z,5.38
2023-02-28T05:22:33.943Z,5.82
2023-02-28T05:27:36.008Z,5.72
2023-02-28T05:32:43.783Z,5.07
2023-02-28T05:37:46.107Z,5.53
2023-02-28T05:42:48.217Z,5.70
2023-02-28T05:47:53.917Z,6.57
2023-02-28T05:52:56.012Z,7.18
2023-02-28T05:57:58.227Z,7.65
2023-02-28T06:03:02.760Z,6.20
2023-02-28T06:08:06.760Z,5.22
2023-02-28T06:13:09.044Z,4.60
2023-02-28T06:18:11.288Z,5.32
2023-02-28T06:23:13.494Z,5.25
2023-02-28T06:28:15.549Z,5.20
2023-02-28T06:33:17.621Z,5.80
2023-02-28T06:38:19.684Z,5.75
2023-02-28T06:43:22.514Z,5.15
2023-02-28T06:48:25.185Z,5.22
2023-02-28T06:53:27.267Z,5.68
2023-02-28T06:58:29.356Z,5.63
2023-02-28T07:03:34.273Z,6.30
2023-02-28T07:08:37.039Z,7.97
2023-02-28T07:13:39.229Z,8.23
2023-02-28T07:18:41.429Z,7.65
2023-02-28T07:23:43.652Z,6.45
2023-02-28T07:28:48.324Z,6.38
2023-02-28T07:33:50.473Z,5.40
2023-02-28T07:38:52.734Z,6.13
2023-02-28T07:43:56.537Z,5.00
2023-02-28T07:49:00.536Z,5.15
2023-02-28T07:54:02.897Z,4.72
2023-02-28T07:59:05.169Z,4.50
2023-02-28T08:04:07.186Z,4.05
2023-02-28T08:09:09.247Z,3.95
2023-02-28T08:14:11.364Z,4.00
2023-02-28T08:19:13.560Z,4.53
2023-02-28T08:24:15.679Z,3.80
2023-02-28T08:29:17.921Z,3.58
2023-02-28T08:34:20.022Z,2.90
2023-02-28T08:39:22.179Z,2.65
2023-02-28T08:44:24.416Z,2.90
2023-02-28T08:49:26.626Z,2.58
2023-02-28T08:54:31.653Z,2.33
2023-02-28T08:59:33.761Z,2.10
2023-02-28T09:04:35.778Z,2.05
2023-02-28T09:09:38.253Z,1.70
2023-02-28T09:14:40.457Z,1.75
2023-02-28T09:19:43.592Z,1.95
2023-02-28T09:24:45.826Z,2.25
2023-02-28T09:29:48.188Z,2.40
2023-02-28T09:34:50.258Z,2.50
2023-02-28T09:39:52.946Z,2.00
2023-02-28T09:44:57.421Z,2.00
2023-02-28T09:50:04.330Z,2.22
2023-02-28T09:55:46.491Z,2.00
2023-02-28T10:01:04.569Z,2.03
2023-02-28T10:06:17.827Z,2.00
2023-02-28T10:11:21.659Z,2.15
2023-02-28T10:16:29.295Z,2.10
2023-02-28T10:21:39.325Z,2.38
2023-02-28T10:26:45.898Z,2.47
2023-02-28T10:31:48.181Z,1.90
2023-02-28T10:36:51.645Z,2.10
2023-02-28T10:41:53.941Z,2.00
2023-02-28T10:46:57.568Z,2.10
2023-02-28T10:52:01.890Z,1.80
2023-02-28T10:57:25.418Z,2.00
2023-02-28T11:02:37.689Z,1.80
2023-02-28T11:07:52.925Z,2.00
2023-02-28T11:12:59.114Z,1.60
2023-02-28T11:18:21.406Z,2.00
2023-02-28T11:23:26.308Z,2.00
2023-02-28T11:28:33.455Z,1.70
2023-02-28T11:33:56.623Z,2.13
2023-02-28T11:39:10.689Z,1.70
2023-02-28T11:44:28.720Z,1.75
2023-02-28T11:49:51.188Z,1.80
2023-02-28T11:55:12.231Z,1.90
2023-02-28T12:00:26.326Z,1.90
2023-02-28T12:05:48.035Z,1.85
2023-02-28T12:11:19.297Z,1.60
2023-02-28T12:16:47.552Z,1.90
2023-02-28T12:22:23.401Z,2.00
2023-02-28T12:27:29.929Z,1.60
2023-02-28T12:32:39.651Z,1.58
2023-02-28T12:37:47.331Z,1.60
2023-02-28T12:43:04.724Z,1.73
2023-02-28T12:48:11.649Z,1.70
2023-02-28T12:53:36.085Z,1.90
2023-02-28T12:58:48.801Z,1.83
2023-02-28T13:04:24.007Z,1.63
2023-02-28T13:09:27.023Z,1.65
2023-02-28T13:14:35.140Z,1.70
2023-02-28T13:19:41.602Z,1.77
2023-02-28T13:24:49.833Z,1.70
2023-02-28T13:29:54.157Z,2.53
2023-02-28T13:34:56.636Z,1.90
2023-02-28T13:40:37.827Z,1.95
2023-02-28T13:45:40.598Z,1.77
2023-02-28T13:50:43.310Z,2.00
2023-02-28T13:56:03.988Z,1.95
2023-02-28T14:01:24.768Z,2.05
2023-02-28T14:06:38.316Z,1.73
2023-02-28T14:11:42.624Z,1.90
2023-02-28T14:16:47.929Z,1.65
2023-02-28T14:21:53.325Z,2.00
2023-02-28T14:27:04.894Z,1.90
2023-02-28T14:32:33.552Z,3.38
2023-02-28T14:37:40.229Z,2.60
2023-02-28T14:43:07.772Z,2.30
2023-02-28T14:48:11.192Z,3.00
2023-02-28T14:53:19.743Z,2.70
2023-02-28T14:58:28.753Z,2.45
2023-02-28T15:03:36.173Z,1.98
2023-02-28T15:08:38.647Z,2.15
2023-02-28T15:13:53.287Z,1.92
2023-02-28T15:19:00.934Z,2.10
2023-02-28T15:24:08.463Z,2.10
2023-02-28T15:29:22.231Z,2.50
2023-02-28T15:34:43.803Z,2.63
2023-02-28T15:39:46.781Z,2.53
2023-02-28T15:44:50.080Z,2.67
2023-02-28T15:50:00.202Z,2.95
2023-02-28T15:55:29.477Z,3.60
2023-02-28T16:00:33.810Z,2.45
2023-02-28T16:05:38.776Z,3.10
2023-02-28T16:10:40.986Z,3.08
2023-02-28T16:15:44.710Z,3.22
2023-02-28T16:20:46.746Z,2.85
2023-02-28T16:25:48.906Z,3.10
2023-02-28T16:30:54.555Z,3.47
2023-02-28T16:35:56.786Z,3.00
2023-02-28T16:41:00.820Z,3.85
2023-02-28T16:46:04.620Z,3.70
2023-02-28T16:51:09.474Z,3.42
2023-02-28T16:56:23.181Z,3.20
2023-02-28T17:01:25.406Z,3.13
2023-02-28T17:06:30.078Z,3.63
2023-02-28T17:11:32.743Z,3.55
2023-02-28T17:16:37.396Z,3.42
2023-02-28T17:21:39.881Z,4.40
2023-02-28T17:26:43.082Z,5.57
2023-02-28T17:31:45.167Z,4.65
2023-02-28T17:36:48.326Z,5.22
2023-02-28T17:41:54.594Z,5.38
2023-02-28T17:46:56.995Z,6.75
2023-02-28T17:51:59.248Z,5.55
2023-02-28T17:57:01.576Z,6.20
2023-02-28T18:02:04.573Z,5.45
2023-02-28T18:07:09.075Z,5.88
2023-02-28T18:12:11.065Z,5.15
2023-02-28T18:17:13.320Z,6.85
2023-02-28T18:22:15.421Z,6.70
2023-02-28T18:27:17.434Z,8.27
2023-02-28T18:32:19.571Z,8.68
2023-02-28T18:37:21.699Z,5.97
2023-02-28T18:42:23.931Z,8.68
2023-02-28T18:47:26.544Z,10.55
2023-02-28T18:52:28.616Z,9.93
2023-02-28T18:57:30.699Z,8.90
2023-02-28T19:02:32.733Z,10.13
2023-02-28T19:07:35.853Z,12.60
2023-02-28T19:12:38.453Z,13.57
2023-02-28T19:17:40.573Z,11.75
2023-02-28T19:22:42.633Z,8.40
2023-02-28T19:27:44.975Z,8.23
2023-02-28T19:32:48.374Z,7.68
2023-02-28T19:37:52.639Z,7.70
2023-02-28T19:42:54.829Z,8.95
2023-02-28T19:47:56.851Z,11.85
2023-02-28T19:53:00.475Z,10.85
2023-02-28T19:58:02.877Z,10.95
2023-02-28T20:03:04.906Z,9.40
2023-02-28T20:08:07.429Z,10.38
2023-02-28T20:13:09.584Z,11.00
2023-02-28T20:18:11.905Z,10.50
2023-02-28T20:23:13.960Z,10.00
2023-02-28T20:28:16.026Z,11.50
2023-02-28T20:33:19.368Z,15.70
2023-02-28T20:38:21.468Z,14.05
2023-02-28T20:43:23.939Z,16.33
2023-02-28T20:48:26.065Z,17.02
2023-02-28T20:53:28.293Z,14.10
2023-02-28T20:58:33.256Z,12.52
2023-02-28T21:03:36.702Z,8.95
2023-02-28T21:08:39.851Z,7.63
2023-02-28T21:13:43.600Z,9.13
2023-02-28T21:18:46.109Z,12.10
2023-02-28T21:23:48.944Z,14.05
2023-02-28T21:28:54.640Z,9.48
2023-02-28T21:33:58.207Z,8.10
2023-02-28T21:39:03.723Z,7.80
2023-02-28T21:44:05.993Z,7.97
2023-02-28T21:49:08.097Z,8.20
2023-02-28T21:54:10.979Z,7.88
2023-02-28T21:59:13.103Z,7.90
2023-02-28T22:04:23.147Z,8.32
2023-02-28T22:09:26.056Z,8.27
2023-02-28T22:14:28.257Z,8.20
2023-02-28T22:19:30.465Z,7.85
2023-02-28T22:24:32.516Z,7.50
2023-02-28T22:29:34.658Z,7.43
2023-02-28T22:34:37.143Z,8.15
2023-02-28T22:39:39.559Z,7.55
2023-02-28T22:44:41.671Z,7.43
2023-02-28T22:49:44.212Z,7.60
2023-02-28T22:54:49.882Z,8.00
2023-02-28T22:59:52.037Z,8.55
2023-02-28T23:04:57.144Z,8.15
2023-02-28T23:09:59.240Z,8.25
2023-02-28T23:15:01.605Z,8.85
2023-02-28T23:20:04.024Z,8.38
2023-02-28T23:25:06.710Z,8.75
2023-02-28T23:30:10.779Z,9.35
2023-02-28T23:35:12.892Z,9.57
2023-02-28T23:40:16.378Z,9.45
2023-02-28T23:45:19.317Z,9.52
2023-02-28T23:50:21.420Z,9.65
2023-02-28T23:55:24.598Z,9.15
